sensor_id;sensor_type;location;lat;lon;timestamp;P1;durP1;ratioP1;P2;durP2;ratioP2
73954;SDS011;62306;52.516;13.290;2023-11-21T00:01:19;16.25;;;8.70;;
73954;SDS011;62306;52.516;13.290;2023-11-21T00:03:45;21.05;;;9.85;;
73954;SDS011;62306;52.516;13.290;2023-11-21T00:06:12;22.63;;;10.95;;
73954;SDS011;62306;52.516;13.290;2023-11-21T00:08:39;20.30;;;11.05;;
73954;SDS011;62306;52.516;13.290;2023-11-21T00:11:06;21.33;;;11.73;;
73954;SDS011;62306;52.516;13.290;2023-11-21T00:13:33;25.35;;;12.27;;
73954;SDS011;62306;52.516;13.290;2023-11-21T00:16:00;25.10;;;12.43;;
73954;SDS011;62306;52.516;13.290;2023-11-21T00:18:28;27.65;;;13.15;;
73954;SDS011;62306;52.516;13.290;2023-11-21T00:20:55;25.13;;;13.32;;
73954;SDS011;62306;52.516;13.290;2023-11-21T00:23:24;26.60;;;13.50;;
73954;SDS011;62306;52.516;13.290;2023-11-21T00:25:51;30.45;;;14.45;;
73954;SDS011;62306;52.516;13.290;2023-11-21T00:28:17;36.00;;;15.95;;
73954;SDS011;62306;52.516;13.290;2023-11-21T00:30:44;31.17;;;14.05;;
73954;SDS011;62306;52.516;13.290;2023-11-21T00:33:11;28.73;;;14.07;;
73954;SDS011;62306;52.516;13.290;2023-11-21T00:35:40;35.67;;;14.90;;
73954;SDS011;62306;52.516;13.290;2023-11-21T00:38:07;32.00;;;14.57;;
73954;SDS011;62306;52.516;13.290;2023-11-21T00:40:35;37.25;;;15.05;;
73954;SDS011;62306;52.516;13.290;2023-11-21T00:43:02;29.90;;;14.80;;
73954;SDS011;62306;52.516;13.290;2023-11-21T00:45:30;34.75;;;16.17;;
73954;SDS011;62306;52.516;13.290;2023-11-21T00:47:57;42.42;;;17.58;;
73954;SDS011;62306;52.516;13.290;2023-11-21T00:50:24;37.67;;;15.75;;
73954;SDS011;62306;52.516;13.290;2023-11-21T00:52:52;38.25;;;16.08;;
73954;SDS011;62306;52.516;13.290;2023-11-21T00:55:19;47.83;;;16.55;;
73954;SDS011;62306;52.516;13.290;2023-11-21T00:57:46;50.60;;;18.48;;
73954;SDS011;62306;52.516;13.290;2023-11-21T01:00:13;57.03;;;20.52;;
73954;SDS011;62306;52.516;13.290;2023-11-21T01:02:42;59.97;;;22.73;;
73954;SDS011;62306;52.516;13.290;2023-11-21T01:05:09;59.78;;;20.95;;
73954;SDS011;62306;52.516;13.290;2023-11-21T01:07:37;57.60;;;22.88;;
73954;SDS011;62306;52.516;13.290;2023-11-21T01:10:05;69.20;;;22.88;;
73954;SDS011;62306;52.516;13.290;2023-11-21T01:12:33;67.93;;;23.25;;
73954;SDS011;62306;52.516;13.290;2023-11-21T01:15:01;72.30;;;22.75;;
73954;SDS011;62306;52.516;13.290;2023-11-21T01:17:27;64.68;;;22.25;;
73954;SDS011;62306;52.516;13.290;2023-11-21T01:19:54;62.30;;;21.98;;
73954;SDS011;62306;52.516;13.290;2023-11-21T01:22:22;61.72;;;20.83;;
73954;SDS011;62306;52.516;13.290;2023-11-21T01:24:51;49.92;;;18.38;;
73954;SDS011;62306;52.516;13.290;2023-11-21T01:27:19;157.45;;;84.78;;
73954;SDS011;62306;52.516;13.290;2023-11-21T01:29:46;50.25;;;18.42;;
73954;SDS011;62306;52.516;13.290;2023-11-21T01:32:13;40.28;;;15.20;;
73954;SDS011;62306;52.516;13.290;2023-11-21T01:34:39;38.85;;;14.40;;
73954;SDS011;62306;52.516;13.290;2023-11-21T01:37:06;34.30;;;13.77;;
73954;SDS011;62306;52.516;13.290;2023-11-21T09:12:10;11.13;;;6.15;;
73954;SDS011;62306;52.516;13.290;2023-11-21T09:14:37;9.32;;;5.88;;
73954;SDS011;62306;52.516;13.290;2023-11-21T09:17:04;8.60;;;5.28;;
73954;SDS011;62306;52.516;13.290;2023-11-21T09:19:35;11.73;;;4.70;;
73954;SDS011;62306;52.516;13.290;2023-11-21T09:22:02;11.40;;;4.75;;
73954;SDS011;62306;52.516;13.290;2023-11-21T09:24:30;9.20;;;5.05;;
73954;SDS011;62306;52.516;13.290;2023-11-21T09:26:57;7.03;;;4.97;;
73954;SDS011;62306;52.516;13.290;2023-11-21T09:29:26;9.70;;;5.03;;
73954;SDS011;62306;52.516;13.290;2023-11-21T09:31:53;12.75;;;6.82;;
73954;SDS011;62306;52.516;13.290;2023-11-21T09:34:24;44.08;;;23.35;;
73954;SDS011;62306;52.516;13.290;2023-11-21T09:36:51;12.05;;;5.72;;
73954;SDS011;62306;52.516;13.290;2023-11-21T09:39:18;13.23;;;5.13;;
73954;SDS011;62306;52.516;13.290;2023-11-21T09:41:46;13.57;;;6.10;;
73954;SDS011;62306;52.516;13.290;2023-11-21T09:44:18;16.75;;;6.20;;
73954;SDS011;62306;52.516;13.290;2023-11-21T09:46:49;15.45;;;7.10;;
73954;SDS011;62306;52.516;13.290;2023-11-21T09:49:20;14.43;;;7.38;;
73954;SDS011;62306;52.516;13.290;2023-11-21T09:51:51;13.93;;;6.60;;
73954;SDS011;62306;52.516;13.290;2023-11-21T09:54:21;15.82;;;6.85;;
73954;SDS011;62306;52.516;13.290;2023-11-21T09:56:48;16.05;;;7.13;;
73954;SDS011;62306;52.516;13.290;2023-11-21T09:59:16;23.50;;;7.68;;
73954;SDS011;62306;52.516;13.290;2023-11-21T10:01:43;20.45;;;7.72;;
73954;SDS011;62306;52.516;13.290;2023-11-21T10:04:13;16.08;;;6.38;;
73954;SDS011;62306;52.516;13.290;2023-11-21T10:06:41;18.23;;;7.63;;
73954;SDS011;62306;52.516;13.290;2023-11-21T10:09:08;19.13;;;7.72;;
73954;SDS011;62306;52.516;13.290;2023-11-21T10:11:37;19.13;;;7.57;;
73954;SDS011;62306;52.516;13.290;2023-11-21T10:14:07;20.92;;;8.23;;
73954;SDS011;62306;52.516;13.290;2023-11-21T10:16:37;19.63;;;8.05;;
73954;SDS011;62306;52.516;13.290;2023-11-21T10:19:04;19.80;;;7.32;;
73954;SDS011;62306;52.516;13.290;2023-11-21T10:21:33;19.67;;;7.68;;
73954;SDS011;62306;52.516;13.290;2023-11-21T10:24:00;17.35;;;6.90;;
73954;SDS011;62306;52.516;13.290;2023-11-21T10:26:27;15.95;;;6.25;;
73954;SDS011;62306;52.516;13.290;2023-11-21T10:28:57;13.88;;;6.30;;
73954;SDS011;62306;52.516;13.290;2023-11-21T10:31:24;16.08;;;7.30;;
73954;SDS011;62306;52.516;13.290;2023-11-21T10:33:52;15.77;;;7.30;;
73954;SDS011;62306;52.516;13.290;2023-11-21T10:36:26;14.45;;;6.63;;
73954;SDS011;62306;52.516;13.290;2023-11-21T10:38:55;19.25;;;9.80;;
73954;SDS011;62306;52.516;13.290;2023-11-21T10:41:23;24.48;;;12.75;;
73954;SDS011;62306;52.516;13.290;2023-11-21T10:43:52;13.73;;;7.10;;
73954;SDS011;62306;52.516;13.290;2023-11-21T10:46:20;14.55;;;6.30;;
73954;SDS011;62306;52.516;13.290;2023-11-21T10:48:51;14.57;;;6.40;;
73954;SDS011;62306;52.516;13.290;2023-11-21T10:51:20;11.55;;;6.00;;
73954;SDS011;62306;52.516;13.290;2023-11-21T10:53:47;15.77;;;6.75;;
73954;SDS011;62306;52.516;13.290;2023-11-21T10:56:17;16.65;;;6.60;;
73954;SDS011;62306;52.516;13.290;2023-11-21T10:58:47;15.82;;;6.85;;
73954;SDS011;62306;52.516;13.290;2023-11-21T11:01:15;16.08;;;7.30;;
73954;SDS011;62306;52.516;13.290;2023-11-21T11:03:46;13.23;;;6.93;;
73954;SDS011;62306;52.516;13.290;2023-11-21T11:06:13;17.23;;;7.75;;
73954;SDS011;62306;52.516;13.290;2023-11-21T11:08:41;15.75;;;8.13;;
73954;SDS011;62306;52.516;13.290;2023-11-21T11:11:08;18.30;;;7.30;;
73954;SDS011;62306;52.516;13.290;2023-11-21T11:13:37;8.50;;;5.32;;
73954;SDS011;62306;52.516;13.290;2023-11-21T11:16:05;19.15;;;7.43;;
73954;SDS011;62306;52.516;13.290;2023-11-21T11:18:35;10.98;;;6.30;;
73954;SDS011;62306;52.516;13.290;2023-11-21T11:21:06;13.90;;;6.63;;
73954;SDS011;62306;52.516;13.290;2023-11-21T11:23:45;15.60;;;7.60;;
73954;SDS011;62306;52.516;13.290;2023-11-21T11:26:26;14.10;;;7.18;;
73954;SDS011;62306;52.516;13.290;2023-11-21T11:29:05;10.32;;;6.38;;
73954;SDS011;62306;52.516;13.290;2023-11-21T11:31:40;15.05;;;6.75;;
73954;SDS011;62306;52.516;13.290;2023-11-21T11:34:19;14.52;;;6.50;;
73954;SDS011;62306;52.516;13.290;2023-11-21T11:36:55;13.45;;;6.68;;
73954;SDS011;62306;52.516;13.290;2023-11-21T11:39:27;16.52;;;6.80;;
73954;SDS011;62306;52.516;13.290;2023-11-21T11:41:55;17.52;;;6.80;;
73954;SDS011;62306;52.516;13.290;2023-11-21T11:47:16;13.55;;;6.10;;
73954;SDS011;62306;52.516;13.290;2023-11-21T11:52:42;9.50;;;5.75;;
73954;SDS011;62306;52.516;13.290;2023-11-21T11:55:10;12.43;;;6.75;;
73954;SDS011;62306;52.516;13.290;2023-11-21T11:57:38;10.32;;;6.05;;
73954;SDS011;62306;52.516;13.290;2023-11-21T12:00:11;10.27;;;5.57;;
73954;SDS011;62306;52.516;13.290;2023-11-21T12:02:44;8.15;;;4.70;;
73954;SDS011;62306;52.516;13.290;2023-11-21T12:05:13;11.10;;;5.10;;
73954;SDS011;62306;52.516;13.290;2023-11-21T12:07:44;6.93;;;4.28;;
73954;SDS011;62306;52.516;13.290;2023-11-21T12:10:13;8.68;;;4.30;;
73954;SDS011;62306;52.516;13.290;2023-11-21T12:12:43;11.65;;;4.85;;
73954;SDS011;62306;52.516;13.290;2023-11-21T12:15:12;7.40;;;4.53;;
73954;SDS011;62306;52.516;13.290;2023-11-21T12:17:41;12.18;;;6.10;;
73954;SDS011;62306;52.516;13.290;2023-11-21T12:20:09;10.50;;;5.85;;
73954;SDS011;62306;52.516;13.290;2023-11-21T12:22:41;9.95;;;5.68;;
73954;SDS011;62306;52.516;13.290;2023-11-21T12:25:09;11.70;;;5.43;;
73954;SDS011;62306;52.516;13.290;2023-11-21T12:27:41;9.30;;;5.05;;
73954;SDS011;62306;52.516;13.290;2023-11-21T12:30:09;7.78;;;4.65;;
73954;SDS011;62306;52.516;13.290;2023-11-21T12:32:40;9.23;;;5.35;;
73954;SDS011;62306;52.516;13.290;2023-11-21T12:35:14;9.18;;;6.28;;
73954;SDS011;62306;52.516;13.290;2023-11-21T12:37:51;14.68;;;6.53;;
73954;SDS011;62306;52.516;13.290;2023-11-21T12:40:19;10.45;;;4.90;;
73954;SDS011;62306;52.516;13.290;2023-11-21T12:42:48;9.57;;;5.07;;
73954;SDS011;62306;52.516;13.290;2023-11-21T12:45:19;8.07;;;4.88;;
73954;SDS011;62306;52.516;13.290;2023-11-21T12:47:49;9.48;;;5.03;;
73954;SDS011;62306;52.516;13.290;2023-11-21T12:50:18;12.75;;;5.18;;
73954;SDS011;62306;52.516;13.290;2023-11-21T12:52:48;10.38;;;5.75;;
73954;SDS011;62306;52.516;13.290;2023-11-21T12:55:16;8.95;;;5.47;;
73954;SDS011;62306;52.516;13.290;2023-11-21T12:57:47;6.78;;;4.43;;
73954;SDS011;62306;52.516;13.290;2023-11-21T13:00:16;11.27;;;6.50;;
73954;SDS011;62306;52.516;13.290;2023-11-21T13:02:54;6.88;;;4.40;;
73954;SDS011;62306;52.516;13.290;2023-11-21T13:05:23;9.13;;;5.43;;
73954;SDS011;62306;52.516;13.290;2023-11-21T13:07:51;6.80;;;4.57;;
73954;SDS011;62306;52.516;13.290;2023-11-21T13:10:19;8.63;;;5.00;;
73954;SDS011;62306;52.516;13.290;2023-11-21T13:12:51;14.35;;;8.52;;
73954;SDS011;62306;52.516;13.290;2023-11-21T13:15:19;10.80;;;6.53;;
73954;SDS011;62306;52.516;13.290;2023-11-21T13:17:46;18.75;;;8.70;;
73954;SDS011;62306;52.516;13.290;2023-11-21T13:20:16;14.63;;;7.18;;
73954;SDS011;62306;52.516;13.290;2023-11-21T13:22:48;15.85;;;8.20;;
73954;SDS011;62306;52.516;13.290;2023-11-21T13:25:16;23.55;;;11.55;;
73954;SDS011;62306;52.516;13.290;2023-11-21T13:27:44;17.92;;;8.57;;
73954;SDS011;62306;52.516;13.290;2023-11-21T13:30:12;19.85;;;9.77;;
73954;SDS011;62306;52.516;13.290;2023-11-21T13:32:44;20.48;;;9.65;;
73954;SDS011;62306;52.516;13.290;2023-11-21T13:35:12;17.95;;;9.43;;
73954;SDS011;62306;52.516;13.290;2023-11-21T13:37:50;17.15;;;9.00;;
73954;SDS011;62306;52.516;13.290;2023-11-21T13:40:21;18.98;;;9.65;;
73954;SDS011;62306;52.516;13.290;2023-11-21T13:42:52;22.77;;;10.27;;
73954;SDS011;62306;52.516;13.290;2023-11-21T13:45:23;22.48;;;10.77;;
73954;SDS011;62306;52.516;13.290;2023-11-21T13:47:51;22.00;;;10.85;;
73954;SDS011;62306;52.516;13.290;2023-11-21T13:50:22;28.67;;;12.07;;
73954;SDS011;62306;52.516;13.290;2023-11-21T13:52:55;25.98;;;12.10;;
73954;SDS011;62306;52.516;13.290;2023-11-21T13:55:23;32.58;;;13.07;;
73954;SDS011;62306;52.516;13.290;2023-11-21T13:57:50;41.70;;;18.45;;
73954;SDS011;62306;52.516;13.290;2023-11-21T14:00:18;30.58;;;13.77;;
73954;SDS011;62306;52.516;13.290;2023-11-21T14:03:10;40.42;;;17.52;;
73954;SDS011;62306;52.516;13.290;2023-11-21T14:05:44;40.30;;;16.58;;
73954;SDS011;62306;52.516;13.290;2023-11-21T14:08:13;41.35;;;17.30;;
73954;SDS011;62306;52.516;13.290;2023-11-21T14:10:42;41.25;;;16.15;;
73954;SDS011;62306;52.516;13.290;2023-11-21T14:13:10;41.17;;;16.40;;
73954;SDS011;62306;52.516;13.290;2023-11-21T14:15:38;39.78;;;16.05;;
73954;SDS011;62306;52.516;13.290;2023-11-21T14:18:10;42.47;;;16.98;;
73954;SDS011;62306;52.516;13.290;2023-11-21T14:20:39;48.03;;;18.08;;
73954;SDS011;62306;52.516;13.290;2023-11-21T14:23:07;42.65;;;17.65;;
73954;SDS011;62306;52.516;13.290;2023-11-21T14:25:36;44.08;;;17.45;;
73954;SDS011;62306;52.516;13.290;2023-11-21T14:28:04;41.47;;;16.60;;
73954;SDS011;62306;52.516;13.290;2023-11-21T14:30:32;35.90;;;16.92;;
73954;SDS011;62306;52.516;13.290;2023-11-21T14:33:01;41.88;;;17.88;;
73954;SDS011;62306;52.516;13.290;2023-11-21T14:35:28;39.65;;;17.30;;
73954;SDS011;62306;52.516;13.290;2023-11-21T14:37:57;42.13;;;18.23;;
73954;SDS011;62306;52.516;13.290;2023-11-21T14:40:25;46.70;;;20.00;;
73954;SDS011;62306;52.516;13.290;2023-11-21T14:42:59;39.67;;;18.80;;
73954;SDS011;62306;52.516;13.290;2023-11-21T14:45:26;40.88;;;18.08;;
73954;SDS011;62306;52.516;13.290;2023-11-21T14:47:54;37.72;;;16.42;;
73954;SDS011;62306;52.516;13.290;2023-11-21T14:50:30;35.75;;;16.83;;
73954;SDS011;62306;52.516;13.290;2023-11-21T14:53:13;38.38;;;16.75;;
73954;SDS011;62306;52.516;13.290;2023-11-21T14:55:39;34.42;;;16.23;;
73954;SDS011;62306;52.516;13.290;2023-11-21T14:58:20;38.38;;;17.05;;
73954;SDS011;62306;52.516;13.290;2023-11-21T15:00:52;29.85;;;15.95;;
73954;SDS011;62306;52.516;13.290;2023-11-21T15:03:23;33.13;;;16.55;;
73954;SDS011;62306;52.516;13.290;2023-11-21T15:06:08;26.70;;;13.93;;
73954;SDS011;62306;52.516;13.290;2023-11-21T15:08:51;27.73;;;15.48;;
73954;SDS011;62306;52.516;13.290;2023-11-21T15:11:24;25.42;;;14.95;;
73954;SDS011;62306;52.516;13.290;2023-11-21T15:13:57;27.98;;;15.15;;
73954;SDS011;62306;52.516;13.290;2023-11-21T15:16:23;41.67;;;19.83;;
73954;SDS011;62306;52.516;13.290;2023-11-21T15:18:51;29.25;;;15.25;;
73954;SDS011;62306;52.516;13.290;2023-11-21T15:21:19;26.45;;;15.02;;
73954;SDS011;62306;52.516;13.290;2023-11-21T15:23:47;25.95;;;15.15;;
73954;SDS011;62306;52.516;13.290;2023-11-21T15:26:14;27.33;;;15.95;;
73954;SDS011;62306;52.516;13.290;2023-11-21T15:28:40;25.20;;;13.50;;
73954;SDS011;62306;52.516;13.290;2023-11-21T15:31:09;33.70;;;15.38;;
73954;SDS011;62306;52.516;13.290;2023-11-21T15:33:35;31.77;;;15.88;;
73954;SDS011;62306;52.516;13.290;2023-11-21T15:36:02;31.25;;;16.00;;
73954;SDS011;62306;52.516;13.290;2023-11-21T15:38:30;36.03;;;15.85;;
73954;SDS011;62306;52.516;13.290;2023-11-21T15:40:57;40.25;;;22.45;;
73954;SDS011;62306;52.516;13.290;2023-11-21T15:43:24;31.58;;;15.93;;
73954;SDS011;62306;52.516;13.290;2023-11-21T15:45:53;31.58;;;15.80;;
73954;SDS011;62306;52.516;13.290;2023-11-21T15:48:22;25.17;;;13.20;;
73954;SDS011;62306;52.516;13.290;2023-11-21T15:50:50;35.65;;;16.02;;
73954;SDS011;62306;52.516;13.290;2023-11-21T15:53:22;28.35;;;15.65;;
73954;SDS011;62306;52.516;13.290;2023-11-21T15:55:48;30.13;;;15.60;;
73954;SDS011;62306;52.516;13.290;2023-11-21T15:58:16;31.05;;;15.55;;
73954;SDS011;62306;52.516;13.290;2023-11-21T16:00:42;27.88;;;13.32;;
73954;SDS011;62306;52.516;13.290;2023-11-21T16:03:09;30.42;;;16.42;;
73954;SDS011;62306;52.516;13.290;2023-11-21T16:05:39;51.72;;;28.00;;
73954;SDS011;62306;52.516;13.290;2023-11-21T16:08:06;30.55;;;15.98;;
73954;SDS011;62306;52.516;13.290;2023-11-21T16:10:32;25.95;;;15.20;;
73954;SDS011;62306;52.516;13.290;2023-11-21T16:13:01;29.45;;;16.52;;
73954;SDS011;62306;52.516;13.290;2023-11-21T16:15:28;30.40;;;14.82;;
73954;SDS011;62306;52.516;13.290;2023-11-21T16:17:54;29.35;;;14.88;;
73954;SDS011;62306;52.516;13.290;2023-11-21T16:20:21;29.88;;;16.38;;
73954;SDS011;62306;52.516;13.290;2023-11-21T16:22:49;31.85;;;15.25;;
73954;SDS011;62306;52.516;13.290;2023-11-21T16:25:17;28.25;;;15.45;;
73954;SDS011;62306;52.516;13.290;2023-11-21T16:27:43;27.52;;;15.50;;
73954;SDS011;62306;52.516;13.290;2023-11-21T16:30:11;27.10;;;14.82;;
73954;SDS011;62306;52.516;13.290;2023-11-21T16:32:38;25.25;;;14.68;;
73954;SDS011;62306;52.516;13.290;2023-11-21T16:35:05;30.80;;;15.15;;
73954;SDS011;62306;52.516;13.290;2023-11-21T16:37:33;31.25;;;15.27;;
73954;SDS011;62306;52.516;13.290;2023-11-21T16:40:01;36.97;;;15.77;;
73954;SDS011;62306;52.516;13.290;2023-11-21T16:42:31;28.08;;;15.05;;
73954;SDS011;62306;52.516;13.290;2023-11-21T16:44:59;33.55;;;15.75;;
73954;SDS011;62306;52.516;13.290;2023-11-21T16:47:26;26.55;;;14.35;;
73954;SDS011;62306;52.516;13.290;2023-11-21T16:49:53;34.38;;;16.92;;
73954;SDS011;62306;52.516;13.290;2023-11-21T16:52:21;28.35;;;14.70;;
73954;SDS011;62306;52.516;13.290;2023-11-21T16:54:48;22.73;;;12.55;;
73954;SDS011;62306;52.516;13.290;2023-11-21T16:57:17;26.85;;;13.90;;
73954;SDS011;62306;52.516;13.290;2023-11-21T16:59:44;23.27;;;13.55;;
73954;SDS011;62306;52.516;13.290;2023-11-21T17:02:15;25.40;;;12.88;;
73954;SDS011;62306;52.516;13.290;2023-11-21T17:04:42;23.90;;;13.20;;
73954;SDS011;62306;52.516;13.290;2023-11-21T17:07:13;23.15;;;13.85;;
73954;SDS011;62306;52.516;13.290;2023-11-21T17:09:41;25.38;;;13.05;;
73954;SDS011;62306;52.516;13.290;2023-11-21T17:12:08;23.63;;;13.18;;
73954;SDS011;62306;52.516;13.290;2023-11-21T17:14:36;27.50;;;13.13;;
73954;SDS011;62306;52.516;13.290;2023-11-21T17:17:08;21.85;;;11.35;;
73954;SDS011;62306;52.516;13.290;2023-11-21T17:19:36;22.15;;;12.20;;
73954;SDS011;62306;52.516;13.290;2023-11-21T17:22:03;23.25;;;11.27;;
73954;SDS011;62306;52.516;13.290;2023-11-21T17:24:30;20.60;;;11.55;;
73954;SDS011;62306;52.516;13.290;2023-11-21T17:27:01;20.70;;;11.20;;
73954;SDS011;62306;52.516;13.290;2023-11-21T17:29:28;35.60;;;12.10;;
73954;SDS011;62306;52.516;13.290;2023-11-21T17:31:56;23.38;;;12.32;;
73954;SDS011;62306;52.516;13.290;2023-11-21T17:34:23;19.17;;;11.23;;
73954;SDS011;62306;52.516;13.290;2023-11-21T17:36:50;19.65;;;10.52;;
73954;SDS011;62306;52.516;13.290;2023-11-21T17:39:17;21.25;;;11.50;;
73954;SDS011;62306;52.516;13.290;2023-11-21T17:41:44;18.73;;;10.18;;
73954;SDS011;62306;52.516;13.290;2023-11-21T17:44:10;22.63;;;12.23;;
73954;SDS011;62306;52.516;13.290;2023-11-21T17:46:38;20.70;;;10.85;;
73954;SDS011;62306;52.516;13.290;2023-11-21T17:49:06;19.20;;;10.70;;
73954;SDS011;62306;52.516;13.290;2023-11-21T17:51:36;20.23;;;9.20;;
73954;SDS011;62306;52.516;13.290;2023-11-21T17:54:04;22.15;;;11.45;;
73954;SDS011;62306;52.516;13.290;2023-11-21T17:56:31;19.38;;;10.63;;
73954;SDS011;62306;52.516;13.290;2023-11-21T17:58:58;20.02;;;11.65;;
73954;SDS011;62306;52.516;13.290;2023-11-21T18:01:26;22.25;;;11.63;;
73954;SDS011;62306;52.516;13.290;2023-11-21T18:03:58;54.60;;;24.48;;
73954;SDS011;62306;52.516;13.290;2023-11-21T18:06:26;18.85;;;10.80;;
73954;SDS011;62306;52.516;13.290;2023-11-21T18:08:53;23.42;;;12.23;;
73954;SDS011;62306;52.516;13.290;2023-11-21T18:11:20;19.80;;;11.40;;
73954;SDS011;62306;52.516;13.290;2023-11-21T18:13:47;21.38;;;10.82;;
73954;SDS011;62306;52.516;13.290;2023-11-21T18:16:14;20.75;;;10.82;;
73954;SDS011;62306;52.516;13.290;2023-11-21T18:18:41;18.80;;;10.95;;
73954;SDS011;62306;52.516;13.290;2023-11-21T18:21:07;20.35;;;11.88;;
73954;SDS011;62306;52.516;13.290;2023-11-21T18:23:36;23.33;;;11.15;;
73954;SDS011;62306;52.516;13.290;2023-11-21T18:26:03;15.80;;;9.55;;
73954;SDS011;62306;52.516;13.290;2023-11-21T18:28:30;24.27;;;10.82;;
73954;SDS011;62306;52.516;13.290;2023-11-21T18:30:57;21.08;;;9.48;;
73954;SDS011;62306;52.516;13.290;2023-11-21T18:33:24;21.08;;;10.93;;
73954;SDS011;62306;52.516;13.290;2023-11-21T18:35:51;16.13;;;10.07;;
73954;SDS011;62306;52.516;13.290;2023-11-21T18:38:17;19.33;;;10.60;;
73954;SDS011;62306;52.516;13.290;2023-11-21T18:40:46;21.45;;;10.60;;
73954;SDS011;62306;52.516;13.290;2023-11-21T18:43:12;20.13;;;9.77;;
73954;SDS011;62306;52.516;13.290;2023-11-21T18:45:40;18.90;;;9.88;;
73954;SDS011;62306;52.516;13.290;2023-11-21T18:48:08;24.38;;;10.65;;
73954;SDS011;62306;52.516;13.290;2023-11-21T18:50:36;24.08;;;11.65;;
73954;SDS011;62306;52.516;13.290;2023-11-21T18:53:03;22.35;;;10.98;;
73954;SDS011;62306;52.516;13.290;2023-11-21T18:55:30;20.27;;;10.55;;
73954;SDS011;62306;52.516;13.290;2023-11-21T18:57:58;17.17;;;9.05;;
73954;SDS011;62306;52.516;13.290;2023-11-21T19:00:25;22.70;;;10.00;;
73954;SDS011;62306;52.516;13.290;2023-11-21T19:02:52;20.60;;;10.40;;
73954;SDS011;62306;52.516;13.290;2023-11-21T19:05:19;16.38;;;8.60;;
73954;SDS011;62306;52.516;13.290;2023-11-21T19:07:46;17.17;;;9.57;;
73954;SDS011;62306;52.516;13.290;2023-11-21T19:10:14;17.52;;;9.38;;
73954;SDS011;62306;52.516;13.290;2023-11-21T19:12:44;19.08;;;9.27;;
73954;SDS011;62306;52.516;13.290;2023-11-21T19:15:13;22.60;;;9.80;;
73954;SDS011;62306;52.516;13.290;2023-11-21T19:17:41;19.88;;;9.30;;
73954;SDS011;62306;52.516;13.290;2023-11-21T19:20:09;17.90;;;8.82;;
73954;SDS011;62306;52.516;13.290;2023-11-21T19:22:36;15.23;;;7.85;;
73954;SDS011;62306;52.516;13.290;2023-11-21T19:25:03;14.98;;;8.30;;
73954;SDS011;62306;52.516;13.290;2023-11-21T19:27:34;19.67;;;9.02;;
73954;SDS011;62306;52.516;13.290;2023-11-21T19:30:01;21.30;;;10.07;;
73954;SDS011;62306;52.516;13.290;2023-11-21T19:32:30;17.90;;;8.73;;
73954;SDS011;62306;52.516;13.290;2023-11-21T19:34:58;16.70;;;8.25;;
73954;SDS011;62306;52.516;13.290;2023-11-21T19:37:25;17.20;;;9.02;;
73954;SDS011;62306;52.516;13.290;2023-11-21T19:39:55;19.92;;;10.63;;
73954;SDS011;62306;52.516;13.290;2023-11-21T19:42:23;15.38;;;9.52;;
73954;SDS011;62306;52.516;13.290;2023-11-21T19:44:50;18.67;;;9.70;;
73954;SDS011;62306;52.516;13.290;2023-11-21T19:47:17;20.95;;;8.93;;
73954;SDS011;62306;52.516;13.290;2023-11-21T19:49:45;17.00;;;8.32;;
73954;SDS011;62306;52.516;13.290;2023-11-21T19:52:12;18.25;;;9.70;;
73954;SDS011;62306;52.516;13.290;2023-11-21T19:54:38;17.35;;;9.13;;
73954;SDS011;62306;52.516;13.290;2023-11-21T19:57:05;17.77;;;9.55;;
73954;SDS011;62306;52.516;13.290;2023-11-21T19:59:34;16.67;;;9.10;;
73954;SDS011;62306;52.516;13.290;2023-11-21T20:02:04;36.67;;;16.48;;
73954;SDS011;62306;52.516;13.290;2023-11-21T20:04:32;21.38;;;11.13;;
73954;SDS011;62306;52.516;13.290;2023-11-21T20:07:00;17.95;;;9.57;;
73954;SDS011;62306;52.516;13.290;2023-11-21T20:09:27;17.33;;;9.30;;
73954;SDS011;62306;52.516;13.290;2023-11-21T20:11:54;21.75;;;9.65;;
73954;SDS011;62306;52.516;13.290;2023-11-21T20:14:23;17.30;;;8.80;;
73954;SDS011;62306;52.516;13.290;2023-11-21T20:16:50;18.55;;;9.88;;
73954;SDS011;62306;52.516;13.290;2023-11-21T20:19:20;20.73;;;9.65;;
73954;SDS011;62306;52.516;13.290;2023-11-21T20:21:47;19.90;;;9.90;;
73954;SDS011;62306;52.516;13.290;2023-11-21T20:24:17;22.00;;;10.05;;
73954;SDS011;62306;52.516;13.290;2023-11-21T20:26:43;18.27;;;9.80;;
73954;SDS011;62306;52.516;13.290;2023-11-21T20:29:10;19.52;;;9.57;;
73954;SDS011;62306;52.516;13.290;2023-11-21T20:31:37;17.85;;;9.23;;
73954;SDS011;62306;52.516;13.290;2023-11-21T20:34:04;20.30;;;10.60;;
73954;SDS011;62306;52.516;13.290;2023-11-21T20:36:31;21.08;;;9.88;;
73954;SDS011;62306;52.516;13.290;2023-11-21T20:38:58;16.50;;;8.77;;
73954;SDS011;62306;52.516;13.290;2023-11-21T20:41:26;22.25;;;10.07;;
73954;SDS011;62306;52.516;13.290;2023-11-21T20:43:53;19.30;;;9.70;;
73954;SDS011;62306;52.516;13.290;2023-11-21T20:46:21;21.05;;;9.25;;
73954;SDS011;62306;52.516;13.290;2023-11-21T20:48:47;19.85;;;9.65;;
73954;SDS011;62306;52.516;13.290;2023-11-21T20:51:15;20.90;;;10.27;;
73954;SDS011;62306;52.516;13.290;2023-11-21T20:53:42;18.85;;;9.60;;
73954;SDS011;62306;52.516;13.290;2023-11-21T20:56:09;22.70;;;11.88;;
73954;SDS011;62306;52.516;13.290;2023-11-21T20:58:37;20.55;;;10.15;;
73954;SDS011;62306;52.516;13.290;2023-11-21T21:01:04;18.75;;;9.55;;
73954;SDS011;62306;52.516;13.290;2023-11-21T21:03:31;21.15;;;9.88;;
73954;SDS011;62306;52.516;13.290;2023-11-21T21:05:58;20.10;;;9.10;;
73954;SDS011;62306;52.516;13.290;2023-11-21T21:08:25;19.45;;;9.75;;
73954;SDS011;62306;52.516;13.290;2023-11-21T21:10:52;18.95;;;10.05;;
73954;SDS011;62306;52.516;13.290;2023-11-21T21:13:19;20.00;;;9.80;;
73954;SDS011;62306;52.516;13.290;2023-11-21T21:15:48;18.88;;;9.98;;
73954;SDS011;62306;52.516;13.290;2023-11-21T21:18:14;23.02;;;10.90;;
73954;SDS011;62306;52.516;13.290;2023-11-21T21:20:41;20.30;;;10.05;;
73954;SDS011;62306;52.516;13.290;2023-11-21T21:23:09;18.95;;;9.38;;
73954;SDS011;62306;52.516;13.290;2023-11-21T21:25:37;18.92;;;10.48;;
73954;SDS011;62306;52.516;13.290;2023-11-21T21:28:04;19.27;;;10.82;;
73954;SDS011;62306;52.516;13.290;2023-11-21T21:30:31;18.00;;;8.65;;
73954;SDS011;62306;52.516;13.290;2023-11-21T21:32:59;22.13;;;9.38;;
73954;SDS011;62306;52.516;13.290;2023-11-21T21:35:26;17.02;;;8.30;;
73954;SDS011;62306;52.516;13.290;2023-11-21T21:37:54;20.23;;;9.35;;
73954;SDS011;62306;52.516;13.290;2023-11-21T21:40:23;17.20;;;8.85;;
73954;SDS011;62306;52.516;13.290;2023-11-21T21:42:51;19.60;;;9.50;;
73954;SDS011;62306;52.516;13.290;2023-11-21T21:45:18;19.65;;;8.73;;
73954;SDS011;62306;52.516;13.290;2023-11-21T21:47:46;18.45;;;8.88;;
73954;SDS011;62306;52.516;13.290;2023-11-21T21:50:14;18.85;;;9.50;;
73954;SDS011;62306;52.516;13.290;2023-11-21T21:52:41;16.30;;;8.52;;
73954;SDS011;62306;52.516;13.290;2023-11-21T21:55:09;21.27;;;8.80;;
73954;SDS011;62306;52.516;13.290;2023-11-21T21:57:38;20.67;;;10.23;;
73954;SDS011;62306;52.516;13.290;2023-11-21T22:00:05;17.70;;;8.60;;
73954;SDS011;62306;52.516;13.290;2023-11-21T22:02:33;20.25;;;8.98;;